createdAt,value
2017-11-01T00:00:29.368Z,9.33
2017-11-01T00:02:57.598Z,9.30
2017-11-01T00:05:25.883Z,6.97
2017-11-01T00:07:54.196Z,8.73
2017-11-01T00:10:22.466Z,7.53
2017-11-01T00:12:50.762Z,7.53
2017-11-01T00:15:19.045Z,5.90
2017-11-01T00:17:47.389Z,8.70
2017-11-01T00:20:15.642Z,8.30
2017-11-01T00:22:43.942Z,7.83
2017-11-01T00:25:12.269Z,8.30
2017-11-01T00:27:41.521Z,6.57
2017-11-01T00:30:09.966Z,8.50
2017-11-01T00:32:38.216Z,8.70
2017-11-01T00:35:07.341Z,9.10
2017-11-01T00:37:35.630Z,8.80
2017-11-01T00:40:03.886Z,9.63
2017-11-01T00:42:32.197Z,6.53
2017-11-01T00:45:00.418Z,10.57
2017-11-01T00:47:29.454Z,10.40
2017-11-01T00:49:57.766Z,8.20
2017-11-01T00:52:26.021Z,7.03
2017-11-01T00:54:54.273Z,5.87
2017-11-01T00:57:22.607Z,7.53
2017-11-01T00:59:51.605Z,6.87
2017-11-01T01:02:19.853Z,6.97
2017-11-01T01:04:48.206Z,5.03
2017-11-01T01:07:16.569Z,6.77
2017-11-01T01:09:44.820Z,7.23
2017-11-01T01:12:13.279Z,6.67
2017-11-01T01:14:41.582Z,5.43
2017-11-01T01:17:09.809Z,5.60
2017-11-01T01:19:38.039Z,5.07
2017-11-01T01:22:06.352Z,7.03
2017-11-01T01:24:34.619Z,6.73
2017-11-01T01:27:02.873Z,6.73
2017-11-01T01:29:31.187Z,7.63
2017-11-01T01:31:59.427Z,6.83
2017-11-01T01:34:27.651Z,7.57
2017-11-01T01:36:55.932Z,6.37
2017-11-01T01:39:25.014Z,6.70
2017-11-01T01:41:53.264Z,5.73
2017-11-01T01:44:21.495Z,4.80
2017-11-01T01:46:49.778Z,5.93
2017-11-01T01:49:18.024Z,6.27
2017-11-01T01:51:46.343Z,4.50
2017-11-01T01:54:14.562Z,6.37
2017-11-01T01:56:42.799Z,7.43
2017-11-01T01:59:11.093Z,6.67
2017-11-01T02:01:39.351Z,6.77
2017-11-01T02:04:07.596Z,5.47
2017-11-01T02:06:35.883Z,5.50
2017-11-01T02:09:04.116Z,5.70
2017-11-01T02:11:32.420Z,4.63
2017-11-01T02:14:01.428Z,5.50
2017-11-01T02:16:29.661Z,5.63
2017-11-01T02:18:57.958Z,6.43
2017-11-01T02:21:26.958Z,4.50
2017-11-01T02:23:55.217Z,4.40
2017-11-01T02:26:24.293Z,4.27
2017-11-01T02:28:52.577Z,3.80
2017-11-01T02:31:20.881Z,4.33
2017-11-01T02:33:49.883Z,4.20
2017-11-01T02:36:18.112Z,3.70
2017-11-01T02:38:46.366Z,4.00
2017-11-01T02:41:14.597Z,5.20
2017-11-01T02:43:43.657Z,3.80
2017-11-01T02:46:11.901Z,5.50
2017-11-01T02:48:40.146Z,5.10
2017-11-01T02:51:09.214Z,5.13
2017-11-01T02:53:37.455Z,4.40
2017-11-01T02:56:05.684Z,5.60
2017-11-01T02:58:35.513Z,5.87
2017-11-01T03:01:04.515Z,5.90
2017-11-01T03:03:32.742Z,6.70
2017-11-01T03:06:01.018Z,7.30
2017-11-01T03:08:29.313Z,3.93
2017-11-01T03:10:58.328Z,5.97
2017-11-01T03:13:26.595Z,7.67
2017-11-01T03:15:54.948Z,6.73
2017-11-01T03:18:23.970Z,8.03
2017-11-01T03:20:52.213Z,4.67
2017-11-01T03:23:20.498Z,5.93
2017-11-01T03:25:49.526Z,5.10
2017-11-01T03:28:17.751Z,5.23
2017-11-01T03:30:46.052Z,5.53
2017-11-01T03:33:15.055Z,4.97
2017-11-01T03:35:43.280Z,4.50
2017-11-01T03:38:12.082Z,4.37
2017-11-01T03:40:40.302Z,4.50
2017-11-01T03:43:08.553Z,4.40
2017-11-01T03:45:37.613Z,4.37
2017-11-01T03:48:05.846Z,4.20
2017-11-01T03:50:34.104Z,3.43
2017-11-01T03:53:03.134Z,4.07
2017-11-01T03:55:31.401Z,3.50
2017-11-01T03:57:59.651Z,3.57
2017-11-01T04:00:28.748Z,4.33
2017-11-01T04:02:56.989Z,3.40
2017-11-01T04:05:25.227Z,4.90
2017-11-01T04:07:53.537Z,3.37
2017-11-01T04:10:21.793Z,4.00
2017-11-01T04:12:50.025Z,5.00
2017-11-01T04:15:18.317Z,4.40
2017-11-01T04:17:46.579Z,4.33
2017-11-01T04:20:17.730Z,4.20
2017-11-01T04:22:45.974Z,4.40
2017-11-01T04:25:15.007Z,4.87
2017-11-01T04:27:43.305Z,6.17
2017-11-01T04:30:11.531Z,4.70
2017-11-01T04:32:40.530Z,4.60
2017-11-01T04:35:09.563Z,3.73
2017-11-01T04:37:37.771Z,5.50
2017-11-01T04:40:06.110Z,4.03
2017-11-01T04:42:34.356Z,4.43
2017-11-01T04:45:02.573Z,4.60
2017-11-01T04:47:30.906Z,3.77
2017-11-01T04:49:59.125Z,4.83
2017-11-01T04:52:27.382Z,4.87
2017-11-01T04:54:55.684Z,5.10
2017-11-01T04:57:25.830Z,4.73
2017-11-01T04:59:54.887Z,4.60
2017-11-01T05:02:29.929Z,4.03
2017-11-01T05:04:58.241Z,4.10
2017-11-01T05:07:26.518Z,4.00
2017-11-01T05:09:58.683Z,4.00
2017-11-01T05:12:27.702Z,4.60
2017-11-01T05:14:55.960Z,4.13
2017-11-01T05:17:25.065Z,3.97
2017-11-01T05:19:53.326Z,4.03
2017-11-01T05:22:21.564Z,3.93
2017-11-01T05:24:55.353Z,3.33
2017-11-01T05:27:23.617Z,4.57
2017-11-01T05:29:51.889Z,4.37
2017-11-01T05:32:20.203Z,3.50
2017-11-01T05:34:48.455Z,3.50
2017-11-01T05:37:16.721Z,4.70
2017-11-01T05:39:45.030Z,4.63
2017-11-01T05:42:13.341Z,4.20
2017-11-01T05:44:42.362Z,4.67
2017-11-01T05:47:10.656Z,5.13
2017-11-01T05:49:38.890Z,4.17
2017-11-01T05:52:07.119Z,4.90
2017-11-01T05:54:35.381Z,3.60
2017-11-01T05:57:03.675Z,3.80
2017-11-01T05:59:31.999Z,4.50
2017-11-01T06:02:00.287Z,4.97
2017-11-01T06:04:28.639Z,3.70
2017-11-01T06:06:56.877Z,3.30
2017-11-01T06:09:25.198Z,5.50
2017-11-01T06:11:53.426Z,6.33
2017-11-01T06:14:21.670Z,5.03
2017-11-01T06:16:49.968Z,3.83
2017-11-01T06:19:18.187Z,3.10
2017-11-01T06:21:47.183Z,4.23
2017-11-01T06:24:16.636Z,5.20
2017-11-01T06:26:44.901Z,3.80
2017-11-01T06:29:13.154Z,3.30
2017-11-01T06:31:41.438Z,3.27
2017-11-01T06:34:09.685Z,3.23
2017-11-01T06:36:39.124Z,3.67
2017-11-01T06:39:07.481Z,3.27
2017-11-01T06:41:35.699Z,3.83
2017-11-01T06:44:04.022Z,4.90
2017-11-01T06:46:32.267Z,3.70
2017-11-01T06:49:00.513Z,4.30
2017-11-01T06:51:28.822Z,5.00
2017-11-01T06:53:57.855Z,4.37
2017-11-01T06:56:26.083Z,3.90
2017-11-01T06:58:54.367Z,4.13
2017-11-01T07:01:22.609Z,4.77
2017-11-01T07:03:50.852Z,4.97
2017-11-01T07:06:19.725Z,4.30
2017-11-01T07:08:48.749Z,6.37
2017-11-01T07:11:16.989Z,4.20
2017-11-01T07:13:46.108Z,5.70
2017-11-01T07:16:14.362Z,4.43
2017-11-01T07:18:43.387Z,6.77
2017-11-01T07:21:11.670Z,7.50
2017-11-01T07:23:40.025Z,4.60
2017-11-01T07:26:08.882Z,7.67
2017-11-01T07:28:37.232Z,7.23
2017-11-01T07:31:05.663Z,4.00
2017-11-01T07:33:33.923Z,5.17
2017-11-01T07:36:02.940Z,5.60
2017-11-01T07:38:31.263Z,7.93
2017-11-01T07:40:59.486Z,7.13
2017-11-01T07:43:28.485Z,8.60
2017-11-01T07:45:56.785Z,6.07
2017-11-01T07:48:25.057Z,7.67
2017-11-01T07:50:53.317Z,7.67
2017-11-01T07:53:21.610Z,4.30
2017-11-01T07:55:49.869Z,5.27
2017-11-01T07:58:18.150Z,4.80
2017-11-01T08:00:46.455Z,7.57
2017-11-01T08:03:14.721Z,8.70
2017-11-01T08:05:42.992Z,7.27
2017-11-01T08:08:11.317Z,8.70
2017-11-01T08:10:40.366Z,8.80
2017-11-01T08:13:08.630Z,8.07
2017-11-01T08:15:37.700Z,10.03
2017-11-01T08:18:06.706Z,4.97
2017-11-01T08:20:34.966Z,8.20
2017-11-01T08:23:04.043Z,10.00
2017-11-01T08:25:33.071Z,11.40
2017-11-01T08:28:01.290Z,6.83
2017-11-01T08:30:29.587Z,10.47
2017-11-01T08:32:58.583Z,10.67
2017-11-01T08:35:27.656Z,10.23
2017-11-01T08:37:55.889Z,11.67
2017-11-01T08:40:24.145Z,14.43
2017-11-01T08:42:53.251Z,11.63
2017-11-01T08:45:21.525Z,14.80
2017-11-01T08:47:49.808Z,10.37
2017-11-01T08:50:18.493Z,13.67
2017-11-01T08:52:46.761Z,8.80
2017-11-01T08:55:15.014Z,13.40
2017-11-01T08:57:44.121Z,12.97
2017-11-01T09:00:13.334Z,12.90
2017-11-01T09:02:41.721Z,13.70
2017-11-01T09:05:10.021Z,14.47
2017-11-01T09:07:38.360Z,16.53
2017-11-01T09:10:06.689Z,12.37
2017-11-01T09:12:35.324Z,5.97
2017-11-01T09:15:03.760Z,6.00
2017-11-01T09:17:32.842Z,11.83
2017-11-01T09:20:01.082Z,8.90
2017-11-01T09:22:29.339Z,13.40
2017-11-01T09:24:57.639Z,13.93
2017-11-01T09:27:25.898Z,9.50
2017-11-01T09:29:54.198Z,10.70
2017-11-01T09:32:23.069Z,13.00
2017-11-01T09:34:51.511Z,15.00
2017-11-01T09:37:20.855Z,7.33
2017-11-01T09:39:49.276Z,27.83
2017-11-01T09:42:17.558Z,14.60
2017-11-01T09:44:45.879Z,11.10
2017-11-01T09:47:14.185Z,12.37
2017-11-01T09:49:43.146Z,10.00
2017-11-01T09:52:11.420Z,9.57
2017-11-01T09:54:39.742Z,9.70
2017-11-01T09:57:08.012Z,9.00
2017-11-01T09:59:36.258Z,7.97
2017-11-01T10:02:04.587Z,9.20
2017-11-01T10:04:32.822Z,8.90
2017-11-01T10:07:01.070Z,8.57
2017-11-01T10:09:29.931Z,8.93
2017-11-01T10:11:58.253Z,9.53
2017-11-01T10:14:26.499Z,13.50
2017-11-01T10:16:57.484Z,10.73
2017-11-01T10:19:26.113Z,13.00
2017-11-01T10:21:54.553Z,10.00
2017-11-01T10:24:23.037Z,8.03
2017-11-01T10:26:51.327Z,9.60
2017-11-01T10:29:19.639Z,13.93
2017-11-01T10:31:48.694Z,8.10
2017-11-01T10:34:16.940Z,10.10
2017-11-01T10:36:45.193Z,15.20
2017-11-01T10:39:13.486Z,14.40
2017-11-01T10:41:41.732Z,12.80
2017-11-01T10:44:10.779Z,11.10
2017-11-01T10:46:39.106Z,10.10
2017-11-01T10:49:08.113Z,10.90
2017-11-01T10:51:36.520Z,11.83
2017-11-01T10:54:04.774Z,13.50
2017-11-01T10:56:33.040Z,14.80
2017-11-01T10:59:01.317Z,9.60
2017-11-01T11:01:29.594Z,8.87
2017-11-01T11:03:57.833Z,14.27
2017-11-01T11:06:26.231Z,15.20
2017-11-01T11:08:54.488Z,16.10
2017-11-01T11:11:22.748Z,17.03
2017-11-01T11:13:51.066Z,15.23
2017-11-01T11:16:19.335Z,15.57
2017-11-01T11:18:48.391Z,18.27
2017-11-01T11:21:16.680Z,17.67
2017-11-01T11:23:44.931Z,14.77
2017-11-01T11:26:13.400Z,17.40
2017-11-01T11:28:41.661Z,12.47
2017-11-01T11:31:10.722Z,13.70
2017-11-01T11:33:40.209Z,12.23
2017-11-01T11:36:08.455Z,11.40
2017-11-01T11:38:36.707Z,12.60
2017-11-01T11:41:04.984Z,10.00
2017-11-01T11:43:33.347Z,8.97
2017-11-01T11:46:01.649Z,8.53
2017-11-01T11:48:29.957Z,7.70
2017-11-01T11:50:59.246Z,9.70
2017-11-01T11:53:27.527Z,8.13
2017-11-01T11:55:55.838Z,10.53
2017-11-01T11:58:24.886Z,14.30
2017-11-01T12:00:53.862Z,13.37
2017-11-01T12:03:22.104Z,11.57
2017-11-01T12:05:51.107Z,9.03
2017-11-01T12:08:19.790Z,9.37
2017-11-01T12:10:48.191Z,9.30
2017-11-01T12:13:16.450Z,9.13
2017-11-01T12:15:44.788Z,8.50
2017-11-01T12:18:13.109Z,9.70
2017-11-01T12:20:41.418Z,6.37
2017-11-01T12:23:09.690Z,8.80
2017-11-01T12:25:38.013Z,7.83
2017-11-01T12:28:07.079Z,10.97
2017-11-01T12:30:35.426Z,14.30
2017-11-01T12:33:03.747Z,11.30
2017-11-01T12:35:32.029Z,13.10
2017-11-01T12:38:00.305Z,11.07
2017-11-01T12:40:30.194Z,10.43
2017-11-01T12:42:59.177Z,13.80
2017-11-01T12:45:27.520Z,15.70
2017-11-01T12:47:55.934Z,8.07
2017-11-01T12:50:24.321Z,14.57
2017-11-01T12:52:52.620Z,16.87
2017-11-01T12:55:21.639Z,11.50
2017-11-01T12:57:49.904Z,15.77
2017-11-01T13:00:19.029Z,17.00
2017-11-01T13:02:47.331Z,11.80
2017-11-01T13:05:15.605Z,17.40
2017-11-01T13:07:43.898Z,17.50
2017-11-01T13:10:12.219Z,16.60
2017-11-01T13:12:40.509Z,15.80
2017-11-01T13:15:08.856Z,11.90
2017-11-01T13:17:37.218Z,8.80
2017-11-01T13:20:06.427Z,16.37
2017-11-01T13:22:34.759Z,17.70
2017-11-01T13:25:03.557Z,16.83
2017-11-01T13:27:31.913Z,9.30
2017-11-01T13:30:00.200Z,12.40
2017-11-01T13:32:28.555Z,7.67
2017-11-01T13:34:56.928Z,8.73
2017-11-01T13:37:25.207Z,8.83
2017-11-01T13:39:53.499Z,7.60
2017-11-01T13:42:21.804Z,8.10
2017-11-01T13:44:50.053Z,16.27
2017-11-01T13:47:18.294Z,11.00
2017-11-01T13:49:46.694Z,7.10
2017-11-01T13:52:15.010Z,8.40
2017-11-01T13:54:43.379Z,10.90
2017-11-01T13:57:11.707Z,11.17
2017-11-01T13:59:40.016Z,9.53
2017-11-01T14:02:08.258Z,14.90
2017-11-01T14:04:36.602Z,9.23
2017-11-01T14:07:05.639Z,9.20
2017-11-01T14:09:33.978Z,13.47
2017-11-01T14:12:03.042Z,10.80
2017-11-01T14:14:31.287Z,14.33
2017-11-01T14:16:59.602Z,13.80
2017-11-01T14:19:27.844Z,14.50
2017-11-01T14:21:56.081Z,16.33
2017-11-01T14:24:25.166Z,18.13
2017-11-01T14:26:53.742Z,14.97
2017-11-01T14:29:22.547Z,13.13
2017-11-01T14:31:51.611Z,15.93
2017-11-01T14:34:19.897Z,16.60
2017-11-01T14:36:48.176Z,16.77
2017-11-01T14:39:16.419Z,15.93
2017-11-01T14:41:44.855Z,17.23
2017-11-01T14:44:13.861Z,18.53
2017-11-01T14:46:42.129Z,16.90
2017-11-01T14:49:10.431Z,17.50
2017-11-01T14:51:38.668Z,15.83
2017-11-01T14:54:07.683Z,16.87
2017-11-01T14:56:35.958Z,18.60
2017-11-01T14:59:04.240Z,16.53
2017-11-01T15:01:32.502Z,18.80
2017-11-01T15:04:00.895Z,14.70
2017-11-01T15:06:29.205Z,13.80
2017-11-01T15:08:57.522Z,15.23
2017-11-01T15:11:26.635Z,14.70
2017-11-01T15:13:55.085Z,12.83
2017-11-01T15:16:23.376Z,12.37
2017-11-01T15:18:52.507Z,15.13
2017-11-01T15:21:20.774Z,16.20
2017-11-01T15:23:49.057Z,10.20
2017-11-01T15:26:17.379Z,14.33
2017-11-01T15:28:45.670Z,16.03
2017-11-01T15:31:14.759Z,17.50
2017-11-01T15:33:43.815Z,10.07
2017-11-01T15:36:12.084Z,16.10
2017-11-01T15:38:40.829Z,15.50
2017-11-01T15:41:09.075Z,14.43
2017-11-01T15:43:37.331Z,11.60
2017-11-01T15:46:06.477Z,13.47
2017-11-01T15:48:34.752Z,12.50
2017-11-01T15:51:03.752Z,15.47
2017-11-01T15:53:32.070Z,14.50
2017-11-01T15:56:01.739Z,13.10
2017-11-01T15:58:30.321Z,13.07
2017-11-01T16:00:58.645Z,12.43
2017-11-01T16:03:26.888Z,11.80
2017-11-01T16:05:55.188Z,11.80
2017-11-01T16:08:24.355Z,12.00
2017-11-01T16:10:54.269Z,11.03
2017-11-01T16:13:22.533Z,11.43
2017-11-01T16:15:50.828Z,11.63
2017-11-01T16:18:19.089Z,10.67
2017-11-01T16:20:48.052Z,12.70
2017-11-01T16:23:19.264Z,12.13
2017-11-01T16:25:47.550Z,14.90
2017-11-01T16:28:15.795Z,16.70
2017-11-01T16:30:44.158Z,19.30
2017-11-01T16:33:13.521Z,16.00
2017-11-01T16:35:41.833Z,18.20
2017-11-01T16:38:10.981Z,15.90
2017-11-01T16:40:39.234Z,14.20
2017-11-01T16:43:07.524Z,11.70
2017-11-01T16:45:35.804Z,13.10
2017-11-01T16:48:04.046Z,14.00
2017-11-01T16:50:32.360Z,13.10
2017-11-01T16:53:01.753Z,10.60
2017-11-01T16:55:30.026Z,11.93
2017-11-01T16:57:58.366Z,12.67
2017-11-01T17:00:26.612Z,10.97
2017-11-01T17:02:54.906Z,11.30
2017-11-01T17:05:24.365Z,12.00
2017-11-01T17:07:52.644Z,12.20
2017-11-01T17:10:20.927Z,13.97
2017-11-01T17:12:49.227Z,10.60
2017-11-01T17:15:18.249Z,12.33
2017-11-01T17:17:46.563Z,12.40
2017-11-01T17:20:14.817Z,9.53
2017-11-01T17:22:43.325Z,11.90
2017-11-01T17:25:11.607Z,9.90
2017-11-01T17:27:39.940Z,9.30
2017-11-01T17:30:08.225Z,11.20
2017-11-01T17:32:36.512Z,9.70
2017-11-01T17:35:04.826Z,11.00
2017-11-01T17:37:33.072Z,10.17
2017-11-01T17:40:01.349Z,9.70
2017-11-01T17:42:31.522Z,11.53
2017-11-01T17:44:59.803Z,12.90
2017-11-01T17:47:28.081Z,11.47
2017-11-01T17:49:56.405Z,12.33
2017-11-01T17:52:26.013Z,12.20
2017-11-01T17:54:54.257Z,12.27
2017-11-01T17:57:23.440Z,13.10
2017-11-01T17:59:52.741Z,13.40
2017-11-01T18:02:21.006Z,14.07
2017-11-01T18:04:49.368Z,13.17
2017-11-01T18:07:18.381Z,14.53
2017-11-01T18:09:46.632Z,13.80
2017-11-01T18:12:15.690Z,15.00
2017-11-01T18:14:43.956Z,14.47
2017-11-01T18:17:12.324Z,16.97
2017-11-01T18:19:40.568Z,20.10
2017-11-01T18:22:08.830Z,16.13
2017-11-01T18:24:38.262Z,20.10
2017-11-01T18:27:06.515Z,15.57
2017-11-01T18:29:35.536Z,17.37
2017-11-01T18:32:04.616Z,15.70
2017-11-01T18:34:32.953Z,16.13
2017-11-01T18:37:01.282Z,16.60
2017-11-01T18:39:29.583Z,16.07
2017-11-01T18:41:57.925Z,16.37
2017-11-01T18:44:26.214Z,16.20
2017-11-01T18:46:54.517Z,14.80
2017-11-01T18:49:22.847Z,15.33
2017-11-01T18:51:51.241Z,16.10
2017-11-01T18:54:19.520Z,13.67
2017-11-01T18:56:47.828Z,16.03
2017-11-01T18:59:16.156Z,17.27
2017-11-01T19:01:45.194Z,14.50
2017-11-01T19:04:14.489Z,15.30
2017-11-01T19:06:42.767Z,15.37
2017-11-01T19:09:11.114Z,17.87
2017-11-01T19:11:39.403Z,14.83
2017-11-01T19:14:07.679Z,15.97
2017-11-01T19:16:36.805Z,14.57
2017-11-01T19:19:05.150Z,15.63
2017-11-01T19:21:33.473Z,16.00
2017-11-01T19:24:02.266Z,14.90
2017-11-01T19:26:30.580Z,16.90
2017-11-01T19:28:58.867Z,14.33
2017-11-01T19:31:27.229Z,13.67
2017-11-01T19:33:55.489Z,13.10
2017-11-01T19:36:24.519Z,14.00
2017-11-01T19:38:53.202Z,12.00
2017-11-01T19:41:21.467Z,14.47
2017-11-01T19:43:49.779Z,12.37
2017-11-01T19:46:18.507Z,12.70
2017-11-01T19:48:47.537Z,13.93
2017-11-01T19:51:15.820Z,11.67
2017-11-01T19:53:44.138Z,11.10
2017-11-01T19:56:13.216Z,13.30
2017-11-01T19:58:44.440Z,12.90
2017-11-01T20:01:13.496Z,13.97
2017-11-01T20:03:41.807Z,14.70
2017-11-01T20:06:10.184Z,12.10
2017-11-01T20:08:38.446Z,13.37
2017-11-01T20:11:06.712Z,14.20
2017-11-01T20:13:35.050Z,10.23
2017-11-01T20:16:03.312Z,11.77
2017-11-01T20:18:31.695Z,14.23
2017-11-01T20:20:59.950Z,12.83
2017-11-01T20:23:28.233Z,12.83
2017-11-01T20:25:56.890Z,11.10
2017-11-01T20:28:25.187Z,13.00
2017-11-01T20:30:53.516Z,14.30
2017-11-01T20:33:22.069Z,12.90
2017-11-01T20:35:50.342Z,11.97
2017-11-01T20:38:19.425Z,12.47
2017-11-01T20:40:47.751Z,11.27
2017-11-01T20:43:16.060Z,11.77
2017-11-01T20:45:44.377Z,12.80
2017-11-01T20:48:12.723Z,12.70
2017-11-01T20:50:41.006Z,12.87
2017-11-01T20:53:09.250Z,13.70
2017-11-01T20:55:37.620Z,12.20
2017-11-01T20:58:05.877Z,12.30
2017-11-01T21:00:34.197Z,11.00
2017-11-01T21:03:02.850Z,11.20
2017-11-01T21:05:31.149Z,12.10
2017-11-01T21:07:59.502Z,12.50
2017-11-01T21:10:27.799Z,8.80
2017-11-01T21:12:56.132Z,11.73
2017-11-01T21:15:25.277Z,11.20
2017-11-01T21:17:53.551Z,12.73
2017-11-01T21:20:21.812Z,11.97
2017-11-01T21:22:50.151Z,14.27
2017-11-01T21:25:19.186Z,12.37
2017-11-01T21:27:47.442Z,10.90
2017-11-01T21:30:16.532Z,11.00
2017-11-01T21:32:44.809Z,10.80
2017-11-01T21:35:13.097Z,10.20
2017-11-01T21:37:41.463Z,12.40
2017-11-01T21:40:10.497Z,11.53
2017-11-01T21:42:38.763Z,12.03
2017-11-01T21:45:07.114Z,12.00
2017-11-01T21:47:35.481Z,11.80
2017-11-01T21:50:04.514Z,13.07
2017-11-01T21:52:32.773Z,12.70
2017-11-01T21:55:01.115Z,13.83
2017-11-01T21:57:29.431Z,10.70
2017-11-01T21:59:57.743Z,12.13
2017-11-01T22:02:26.674Z,14.03
2017-11-01T22:04:54.976Z,14.07
2017-11-01T22:07:23.240Z,12.90
2017-11-01T22:09:51.591Z,15.50
2017-11-01T22:12:20.689Z,13.10
2017-11-01T22:14:49.727Z,14.27
2017-11-01T22:17:18.436Z,14.63
2017-11-01T22:19:46.690Z,15.60
2017-11-01T22:22:14.931Z,16.20
2017-11-01T22:24:44.043Z,16.17
2017-11-01T22:27:13.118Z,16.97
2017-11-01T22:29:42.197Z,15.93
2017-11-01T22:32:11.339Z,15.17
2017-11-01T22:34:39.592Z,18.50
2017-11-01T22:37:08.613Z,14.97
2017-11-01T22:39:36.935Z,15.67
2017-11-01T22:42:05.226Z,15.23
2017-11-01T22:44:34.267Z,13.60
2017-11-01T22:47:02.570Z,15.03
2017-11-01T22:49:30.829Z,13.53
2017-11-01T22:51:59.168Z,18.80
2017-11-01T22:54:27.420Z,17.60
2017-11-01T22:56:55.686Z,18.17
2017-11-01T22:59:24.017Z,19.00
2017-11-01T23:01:52.301Z,15.00
2017-11-01T23:04:20.562Z,15.27
2017-11-01T23:06:48.897Z,15.47
2017-11-01T23:09:17.980Z,11.27
2017-11-01T23:11:46.313Z,9.00
2017-11-01T23:14:14.555Z,12.33
2017-11-01T23:16:43.637Z,12.80
2017-11-01T23:19:11.960Z,8.93
2017-11-01T23:21:40.235Z,7.60
2017-11-01T23:24:09.271Z,9.90
2017-11-01T23:26:37.602Z,9.03
2017-11-01T23:29:05.880Z,8.30
2017-11-01T23:31:34.931Z,8.83
2017-11-01T23:34:03.216Z,9.40
2017-11-01T23:36:32.344Z,9.53
2017-11-01T23:39:00.584Z,10.70
2017-11-01T23:41:29.615Z,8.53
2017-11-01T23:43:57.955Z,8.37
2017-11-01T23:46:26.981Z,8.60
2017-11-01T23:48:55.252Z,7.13
2017-11-01T23:51:23.596Z,7.57
2017-11-01T23:53:52.633Z,9.03
2017-11-01T23:56:20.900Z,7.83
2017-11-01T23:58:49.602Z,9.43
